KSEAKKLS

Guest
Details From KSEA - Seattle Tacoma Intl
To KKLS - Kelso Longview
Flight Number -
Tags Generated
Created
Modified
Stats Distance 84 nm / 156 km
Max Altitude 0 ft / 0 m
Waypoints 2
Social Downloads 1
Likes 0
Share VATSIM

Download

Looking for another format? Having issues loading an existing format? Contact us
Advertisement - Login to hide

Notes

Generated

Route

KSEA KKLS

ID Type Via Altitude Latitude Longitude Leg Dist Tot Dist Heading (true) Name
O KSEA APT - 0 ft / 0 m 47.46383˚ -122.31786˚ - 0 nm - -
O KKLS APT - 0 ft / 0 m 46.12264˚ -122.90390˚ 84 nm 84 nm 197° / 196° KELSO LONGVIEW

Altitude Profile

Advertisement - Login to hide

KSEA

Details ICAO KSEA (SEA)
Name Seattle Tacoma Intl
Region United States
Timezone America/Los_Angeles (UTC-7.0)
Stats Elevation 433 ft / 132 m (AMSL)
Location 47.450188° -122.312320°
Runways 3
Magnetic Variation 15.622° E

METAR

KSEA 260253Z 02008KT 10SM BKN060 17/07 A3001 RMK AO2 SLP167 T01720067 55002

Decode

TAF

TAF AMD KSEA 260301Z 2603/2706 02008KT P6SM BKN060 FM260500 VRB03KT P6SM SCT030 BKN050 FM260600 16005KT P6SM SCT030 BKN050 FM260900 16006KT 5SM -DZ BR SCT010 BKN015 OVC025 FM261400 18005KT P6SM SCT007 BKN012 OVC020 FM261800 22005KT P6SM SCT015 BKN030 FM262100 25006KT P6SM SCT030 SCT045 FM270100 32005KT P6SM BKN045

Decode

Departure Runways

ID Width Length Bearing (true) Bearing (mag) Surface Threshold Offset Overrun Length
16C 151 ft / 46 m 9,429 ft / 2,874 m 180.34° 164.72° Concrete 0 ft / 0 m 223 ft / 68 m
16L 151 ft / 46 m 11,904 ft / 3,628 m 180.34° 164.72° Concrete 0 ft / 0 m 151 ft / 46 m
16R 151 ft / 46 m 8,503 ft / 2,592 m 180.34° 164.72° Concrete 0 ft / 0 m 164 ft / 50 m
34C 151 ft / 46 m 9,429 ft / 2,874 m 0.34° 344.72° Concrete 0 ft / 0 m 394 ft / 120 m
34L 151 ft / 46 m 8,503 ft / 2,592 m 0.34° 344.72° Concrete 0 ft / 0 m 394 ft / 120 m
34R 151 ft / 46 m 11,904 ft / 3,628 m 0.34° 344.72° Concrete 0 ft / 0 m 400 ft / 122 m

KKLS

Details ICAO KKLS (KLS)
Name KELSO LONGVIEW
Region United States
Timezone America/Los_Angeles (UTC-7.0)
Stats Elevation 20 ft / 6 m (AMSL)
Location 46.118009° -122.898374°
Runways 1
Magnetic Variation 15.411° E

METAR

KKLS 260256Z AUTO 29012G17KT 260V320 10SM CLR 14/06 A3008 RMK AO2 SLP189 T01440061 53012

Decode

TAF

Not found

Destination Runways

ID Width Length Bearing (true) Bearing (mag) Surface Threshold Offset Overrun Length
12 100 ft / 30 m 4,387 ft / 1,337 m 140.43° 125.02° Asphalt 0 ft / 0 m 0 ft / 0 m
30 100 ft / 30 m 4,387 ft / 1,337 m 320.44° 305.03° Asphalt 0 ft / 0 m 0 ft / 0 m